Time;durP1;ratioP1;P1;durP2;ratioP2;P2;SDS_P1;SDS_P2;PMS_P1;PMS_P2;Temp;Humidity;BMP_temperature;BMP_pressure;BME280_temperature;BME280_humidity;BME280_pressure;Samples;Min_cycle;Max_cycle;Signal;HPM_P1;HPM_P2
2023/01/20 00:01:26;;;;;;;5.43;1.67;;;-0.20;99.90;;;;;;5037960;28;20062;-72
2023/01/20 00:03:54;;;;;;;5.55;1.60;;;-0.20;99.90;;;;;;5035919;28;20094;-72
2023/01/20 00:06:21;;;;;;;4.25;1.80;;;-0.20;99.90;;;;;;5032906;28;21286;-71
2023/01/20 00:08:51;;;;;;;4.63;1.55;;;-0.20;99.90;;;;;;5049290;28;20068;-72
2023/01/20 00:11:18;;;;;;;5.47;1.60;;;0.70;99.90;;;;;;5035882;28;20113;-72
2023/01/20 00:13:44;;;;;;;4.70;1.73;;;-0.20;99.90;;;;;;5016211;28;20635;-72
2023/01/20 00:16:10;;;;;;;5.18;1.60;;;-0.30;99.90;;;;;;5031785;28;20049;-72
2023/01/20 00:18:37;;;;;;;4.60;1.80;;;0.30;99.90;;;;;;5028064;28;20071;-72
2023/01/20 00:21:08;;;;;;;4.40;1.50;;;-0.30;99.90;;;;;;5017504;28;20075;-72
2023/01/20 00:23:34;;;;;;;7.00;1.80;;;-0.30;99.90;;;;;;5023061;28;20071;-72
2023/01/20 00:26:04;;;;;;;6.40;1.98;;;-0.30;99.90;;;;;;5011694;28;20041;-72
2023/01/20 00:28:30;;;;;;;6.45;1.88;;;-0.30;99.90;;;;;;5043702;28;20506;-72
2023/01/20 00:30:56;;;;;;;6.15;1.90;;;-0.30;99.90;;;;;;5034898;28;20102;-72
2023/01/20 00:33:22;;;;;;;5.22;2.03;;;-0.30;99.90;;;;;;5035387;28;20537;-72
2023/01/20 00:35:47;;;;;;;5.55;1.95;;;-0.30;99.90;;;;;;5017915;28;20240;-72
2023/01/20 00:38:14;;;;;;;6.45;2.50;;;-0.30;99.90;;;;;;5034613;28;20122;-72
2023/01/20 00:40:40;;;;;;;6.45;2.42;;;-0.30;99.90;;;;;;5019169;28;20056;-72
2023/01/20 00:43:05;;;;;;;6.57;2.53;;;-0.30;99.90;;;;;;5032921;28;20405;-72
2023/01/20 00:45:31;;;;;;;8.38;3.97;;;-0.40;99.90;;;;;;5031354;28;20063;-72
2023/01/20 00:47:57;;;;;;;8.15;3.75;;;-0.40;99.90;;;;;;5018679;28;20076;-72
2023/01/20 00:50:22;;;;;;;7.20;4.05;;;-0.20;99.90;;;;;;5023892;28;20044;-71
2023/01/20 00:52:48;;;;;;;9.70;4.45;;;-0.20;99.90;;;;;;5019899;28;20048;-72
2023/01/20 00:55:14;;;;;;;11.48;5.18;;;-0.30;99.90;;;;;;5020470;28;20101;-72
2023/01/20 00:57:40;;;;;;;13.30;6.10;;;-0.30;99.90;;;;;;5031550;28;20048;-72
2023/01/20 01:00:06;;;;;;;10.65;5.70;;;-0.30;99.90;;;;;;5045549;28;20073;-72
2023/01/20 01:02:38;;;;;;;13.48;6.50;;;-0.30;99.90;;;;;;5034891;28;20397;-72
2023/01/20 01:05:04;;;;;;;12.88;6.60;;;-0.30;99.90;;;;;;5050631;28;20045;-72
2023/01/20 01:07:30;;;;;;;16.55;7.22;;;-0.30;99.90;;;;;;5024218;28;20095;-72
2023/01/20 01:09:59;;;;;;;16.98;7.10;;;-0.20;99.90;;;;;;5032864;28;20504;-72
2023/01/20 01:12:24;;;;;;;19.15;7.50;;;-0.30;99.90;;;;;;5012759;28;20075;-72
2023/01/20 01:14:50;;;;;;;13.82;7.50;;;-0.20;99.90;;;;;;5026848;28;20084;-72
2023/01/20 01:17:16;;;;;;;13.98;7.70;;;-0.30;99.90;;;;;;5055939;28;20674;-72
2023/01/20 01:19:41;;;;;;;17.25;8.52;;;-0.30;99.90;;;;;;5032323;28;20517;-72
2023/01/20 01:22:07;;;;;;;25.33;9.38;;;-0.10;99.90;;;;;;5041187;28;20041;-72
2023/01/20 01:24:33;;;;;;;22.08;9.05;;;-0.30;99.90;;;;;;5040892;28;20102;-72
2023/01/20 01:26:58;;;;;;;31.67;9.48;;;-0.10;99.90;;;;;;5056307;28;20075;-72
2023/01/20 01:29:24;;;;;;;17.60;8.98;;;0.10;99.90;;;;;;5035986;28;20122;-72
2023/01/20 01:31:50;;;;;;;17.45;9.20;;;-0.30;99.90;;;;;;5033481;28;20120;-72
2023/01/20 01:34:15;;;;;;;20.58;9.77;;;-0.30;99.90;;;;;;5038269;28;20048;-72
2023/01/20 01:36:41;;;;;;;18.77;9.45;;;0.10;99.90;;;;;;5037963;28;20090;-72
2023/01/20 01:39:07;;;;;;;18.65;9.52;;;-0.30;99.90;;;;;;5041016;28;20083;-72
2023/01/20 01:41:33;;;;;;;24.75;9.60;;;-0.10;99.90;;;;;;5038250;28;20079;-72
2023/01/20 01:44:08;;;;;;;17.50;9.68;;;-0.30;99.90;;;;;;5020196;28;20075;-71
2023/01/20 01:46:34;;;;;;;17.33;9.18;;;-0.30;99.90;;;;;;5033480;28;22606;-72
2023/01/20 01:49:14;;;;;;;17.13;9.50;;;-0.30;99.90;;;;;;5022237;28;20556;-71
2023/01/20 01:51:57;;;;;;;18.85;9.73;;;-0.30;99.90;;;;;;5037228;28;20057;-72
2023/01/20 01:54:28;;;;;;;14.90;9.32;;;-0.30;99.90;;;;;;5014495;28;20695;-72
2023/01/20 01:56:54;;;;;;;17.90;9.23;;;-0.30;99.90;;;;;;5018598;28;20401;-72
2023/01/20 01:59:20;;;;;;;20.83;9.45;;;-0.40;99.90;;;;;;5041955;28;20095;-72
2023/01/20 02:01:51;;;;;;;19.73;10.00;;;-0.40;99.90;;;;;;5012408;28;20103;-72
2023/01/20 02:04:27;;;;;;;16.60;8.45;;;-0.10;99.90;;;;;;5037778;28;20040;-71
2023/01/20 02:07:06;;;;;;;17.10;9.73;;;-0.30;99.90;;;;;;5033635;28;20052;-72
2023/01/20 02:09:33;;;;;;;16.83;8.88;;;-0.30;99.90;;;;;;5036909;28;20067;-72
2023/01/20 02:12:07;;;;;;;18.10;9.15;;;-0.40;99.90;;;;;;5017758;28;20422;-71
2023/01/20 02:14:37;;;;;;;16.38;8.88;;;-0.40;99.90;;;;;;5015855;28;20041;-72
2023/01/20 02:17:37;;;;;;;16.75;8.60;;;-0.40;99.90;;;;;;5044515;28;20101;-72
2023/01/20 02:20:35;;;;;;;16.50;8.95;;;-0.40;99.90;;;;;;5050529;28;20583;-72
2023/01/20 02:23:15;;;;;;;17.38;8.57;;;-0.40;99.90;;;;;;5014622;28;20080;-72
2023/01/20 02:26:07;;;;;;;17.02;8.35;;;-0.50;99.90;;;;;;5038986;28;20796;-72
2023/01/20 02:28:51;;;;;;;16.98;8.85;;;-0.40;99.90;;;;;;5034466;28;20056;-72
2023/01/20 02:31:26;;;;;;;16.33;8.45;;;-0.50;99.90;;;;;;5034123;28;22210;-72
2023/01/20 02:33:56;;;;;;;17.13;9.27;;;-0.50;99.90;;;;;;5026815;28;20083;-72
2023/01/20 02:36:52;;;;;;;17.40;9.48;;;-0.20;99.90;;;;;;5056367;28;20051;-72
2023/01/20 02:39:50;;;;;;;17.10;8.98;;;-0.50;99.90;;;;;;5034983;28;20044;-72
2023/01/20 02:42:41;;;;;;;16.33;8.93;;;-0.50;99.90;;;;;;5001192;28;20149;-72
2023/01/20 02:45:44;;;;;;;17.00;9.17;;;-0.40;99.90;;;;;;5038149;28;20039;-72
2023/01/20 02:48:45;;;;;;;16.65;8.73;;;-0.60;99.90;;;;;;5034180;28;20422;-72
2023/01/20 02:51:16;;;;;;;18.83;9.40;;;-0.60;99.90;;;;;;5022408;28;20057;-72
2023/01/20 02:53:54;;;;;;;16.53;9.23;;;-0.20;99.90;;;;;;5051104;28;20040;-72
2023/01/20 02:56:24;;;;;;;16.45;9.23;;;-0.20;99.90;;;;;;5034197;28;20464;-72
2023/01/20 02:59:01;;;;;;;17.35;9.20;;;-0.60;99.90;;;;;;5018336;28;20563;-72
2023/01/20 03:01:51;;;;;;;19.25;9.98;;;-0.60;99.90;;;;;;5020013;28;20044;-72
2023/01/20 03:04:22;;;;;;;18.13;9.75;;;-0.60;99.90;;;;;;5021333;28;20044;-72
2023/01/20 03:06:52;;;;;;;19.10;9.80;;;-0.60;99.90;;;;;;5055099;28;20045;-72
2023/01/20 03:09:24;;;;;;;22.15;10.50;;;-0.60;99.90;;;;;;5023485;28;20444;-72
2023/01/20 03:11:56;;;;;;;23.30;11.60;;;-0.60;99.90;;;;;;5037203;28;20056;-72
2023/01/20 03:14:21;;;;;;;19.20;10.32;;;0.40;99.90;;;;;;5036820;28;20056;-71
2023/01/20 03:16:49;;;;;;;20.38;10.55;;;-0.70;99.90;;;;;;5038145;28;20049;-72
2023/01/20 03:19:16;;;;;;;19.80;11.63;;;-0.60;99.90;;;;;;5033377;28;20068;-72
2023/01/20 03:21:42;;;;;;;22.85;12.30;;;-0.70;99.90;;;;;;5033299;28;20040;-72
2023/01/20 03:24:08;;;;;;;24.45;12.88;;;-0.70;99.90;;;;;;5031206;28;20127;-72
2023/01/20 03:26:34;;;;;;;23.23;12.23;;;-0.60;99.90;;;;;;5049775;28;20045;-72
2023/01/20 03:29:10;;;;;;;23.13;12.23;;;-0.60;99.90;;;;;;5056583;28;20045;-72
2023/01/20 03:31:43;;;;;;;26.60;14.25;;;-0.60;99.90;;;;;;5030256;28;20063;-72
2023/01/20 03:34:16;;;;;;;22.98;12.65;;;-0.60;99.90;;;;;;5026926;28;20477;-72
2023/01/20 03:36:43;;;;;;;25.13;14.05;;;-0.50;99.90;;;;;;5035976;28;20193;-72
2023/01/20 03:39:09;;;;;;;25.38;13.40;;;-0.60;99.90;;;;;;5030998;28;20044;-72
2023/01/20 03:41:41;;;;;;;28.05;14.18;;;-0.50;99.90;;;;;;5032174;28;20049;-72
2023/01/20 03:44:32;;;;;;;29.33;14.65;;;-0.50;99.90;;;;;;5030535;28;20128;-72
2023/01/20 03:47:12;;;;;;;27.10;14.75;;;-0.50;99.90;;;;;;5050437;28;20083;-72
2023/01/20 03:50:10;;;;;;;29.40;14.88;;;-0.40;99.90;;;;;;5050874;28;20055;-71
2023/01/20 03:52:54;;;;;;;26.40;14.45;;;-0.40;99.90;;;;;;5039528;28;20064;-72
2023/01/20 03:55:25;;;;;;;29.95;15.52;;;-0.40;99.90;;;;;;5050957;28;20045;-72
2023/01/20 03:58:04;;;;;;;28.90;15.65;;;-1.10;99.90;;;;;;5032673;28;20048;-72
2023/01/20 04:00:38;;;;;;;28.50;14.98;;;-0.40;99.90;;;;;;5037670;28;20128;-72
2023/01/20 04:03:09;;;;;;;37.60;16.88;;;-0.40;99.90;;;;;;5032963;28;20128;-72
2023/01/20 04:05:37;;;;;;;32.95;16.33;;;-0.30;99.90;;;;;;5036526;28;20080;-72
2023/01/20 04:08:07;;;;;;;32.67;16.35;;;-0.30;99.90;;;;;;5031773;28;20455;-72
2023/01/20 04:10:36;;;;;;;41.65;17.35;;;-0.30;99.90;;;;;;5038162;28;20101;-72
2023/01/20 04:13:02;;;;;;;35.95;17.15;;;0.20;99.90;;;;;;5031200;28;20127;-72
2023/01/20 04:15:32;;;;;;;37.47;16.98;;;-0.10;99.90;;;;;;5043235;28;20140;-72
2023/01/20 04:18:10;;;;;;;35.85;17.33;;;-0.30;99.90;;;;;;5057850;28;20056;-72
2023/01/20 04:20:35;;;;;;;41.35;17.08;;;-0.30;99.90;;;;;;5040337;28;20045;-72
2023/01/20 04:23:01;;;;;;;36.17;17.90;;;-0.30;99.90;;;;;;5036794;28;20044;-72
2023/01/20 04:25:32;;;;;;;36.08;17.77;;;-0.30;99.90;;;;;;5055913;28;20565;-72
2023/01/20 04:27:58;;;;;;;33.70;16.50;;;-0.20;99.90;;;;;;5027955;28;20052;-72
2023/01/20 04:30:23;;;;;;;41.53;18.10;;;-0.20;99.90;;;;;;5041100;28;20054;-72
2023/01/20 04:32:50;;;;;;;34.42;17.08;;;-0.20;99.90;;;;;;5023357;28;20049;-72
2023/01/20 04:35:18;;;;;;;39.97;17.45;;;-0.20;99.90;;;;;;5042419;28;20105;-73
2023/01/20 04:37:44;;;;;;;32.13;15.75;;;-0.20;99.90;;;;;;5051377;28;20051;-72
2023/01/20 04:40:11;;;;;;;37.78;16.77;;;-0.20;99.90;;;;;;5033807;28;20177;-72
2023/01/20 04:42:37;;;;;;;42.92;17.80;;;-0.10;99.90;;;;;;5038698;28;20057;-72
2023/01/20 04:45:03;;;;;;;38.58;16.48;;;0.00;99.90;;;;;;5036670;28;20102;-72
2023/01/20 04:47:30;;;;;;;35.17;16.05;;;-0.20;99.90;;;;;;5058459;28;20126;-73
2023/01/20 04:49:56;;;;;;;36.17;17.30;;;0.00;99.90;;;;;;5056232;28;20122;-72
2023/01/20 04:52:22;;;;;;;35.45;16.10;;;-0.20;99.90;;;;;;5024804;28;20041;-72
2023/01/20 04:54:48;;;;;;;36.75;16.75;;;-0.20;99.90;;;;;;5057452;28;20040;-72
2023/01/20 04:57:14;;;;;;;31.13;15.05;;;-0.30;99.90;;;;;;5025552;28;20032;-72
2023/01/20 04:59:40;;;;;;;40.33;15.80;;;-0.10;99.90;;;;;;5053507;28;20082;-72
2023/01/20 05:02:06;;;;;;;33.55;15.95;;;-0.20;99.90;;;;;;5038669;28;20437;-72
2023/01/20 05:04:32;;;;;;;36.60;15.93;;;0.20;99.90;;;;;;5026187;28;20055;-73
2023/01/20 05:06:58;;;;;;;42.97;17.92;;;-0.20;99.90;;;;;;5042234;28;20060;-72
2023/01/20 05:09:23;;;;;;;40.00;17.08;;;-0.20;99.90;;;;;;5016837;28;20468;-72
2023/01/20 05:11:49;;;;;;;38.60;16.42;;;-0.20;99.90;;;;;;5046635;28;20136;-72
2023/01/20 05:14:15;;;;;;;38.50;16.63;;;-0.20;99.90;;;;;;5036416;28;20053;-72
2023/01/20 05:16:41;;;;;;;39.50;16.83;;;-0.20;99.90;;;;;;5064068;28;20071;-72
2023/01/20 05:19:07;;;;;;;36.28;16.50;;;-0.20;99.90;;;;;;5041224;28;20595;-72
2023/01/20 05:21:33;;;;;;;37.45;14.80;;;-0.20;99.90;;;;;;5023292;28;20059;-72
2023/01/20 05:23:59;;;;;;;40.42;17.48;;;-0.20;99.90;;;;;;5062836;28;20051;-72
2023/01/20 05:26:26;;;;;;;38.28;17.50;;;-0.20;99.90;;;;;;5039790;28;20039;-72
2023/01/20 05:28:52;;;;;;;40.13;16.55;;;-0.20;99.90;;;;;;5040091;28;20044;-72
2023/01/20 05:31:17;;;;;;;35.85;16.50;;;-0.20;99.90;;;;;;5061087;28;20472;-72
2023/01/20 05:33:43;;;;;;;35.45;16.17;;;0.50;99.90;;;;;;5052468;28;20056;-72
2023/01/20 05:36:10;;;;;;;40.30;16.92;;;-0.20;99.90;;;;;;5041585;28;20043;-72
2023/01/20 05:38:36;;;;;;;34.85;16.50;;;-0.20;99.90;;;;;;5043804;28;20653;-73
2023/01/20 05:41:04;;;;;;;38.40;16.13;;;-0.20;99.90;;;;;;5042791;28;20062;-72
2023/01/20 05:43:30;;;;;;;40.45;18.70;;;-0.20;99.90;;;;;;5023852;28;20123;-72
2023/01/20 05:45:57;;;;;;;34.40;15.63;;;-0.10;99.90;;;;;;5038562;28;20049;-72
2023/01/20 05:48:22;;;;;;;39.50;17.88;;;-0.20;99.90;;;;;;5042966;28;20039;-73
2023/01/20 05:50:48;;;;;;;37.58;17.25;;;-0.20;99.90;;;;;;5054140;28;20040;-72
2023/01/20 05:53:14;;;;;;;41.72;18.92;;;-0.20;99.90;;;;;;5025040;28;20052;-72
2023/01/20 05:55:40;;;;;;;42.28;17.83;;;-0.20;99.90;;;;;;5054749;28;20048;-72
2023/01/20 05:58:06;;;;;;;37.25;16.33;;;-0.20;99.90;;;;;;5038481;28;20040;-72
2023/01/20 06:00:31;;;;;;;41.22;18.02;;;-0.10;99.90;;;;;;5035015;28;20044;-72
2023/01/20 06:02:57;;;;;;;41.60;18.20;;;-0.10;99.90;;;;;;5057945;28;20539;-72
2023/01/20 06:05:23;;;;;;;45.50;18.48;;;0.20;99.90;;;;;;5038730;28;20036;-72
2023/01/20 06:07:49;;;;;;;45.92;19.25;;;-0.10;99.90;;;;;;5023102;28;20413;-73
2023/01/20 06:10:16;;;;;;;39.05;18.17;;;-0.10;99.90;;;;;;5041127;28;20466;-72
2023/01/20 06:12:42;;;;;;;45.38;19.02;;;-0.10;99.90;;;;;;5036996;28;20066;-73
2023/01/20 06:15:10;;;;;;;47.90;19.67;;;-0.10;99.90;;;;;;5025642;28;20858;-74
2023/01/20 06:17:36;;;;;;;49.63;20.15;;;-0.10;99.90;;;;;;5058264;28;20072;-73
2023/01/20 06:20:03;;;;;;;46.25;19.90;;;-0.10;99.90;;;;;;5034796;28;20440;-72
2023/01/20 06:22:28;;;;;;;44.20;19.65;;;-0.10;99.90;;;;;;5032221;28;20037;-73
2023/01/20 06:24:54;;;;;;;52.42;20.48;;;-0.10;99.90;;;;;;5057462;28;20406;-73
2023/01/20 06:27:20;;;;;;;47.80;20.05;;;-0.10;99.90;;;;;;5036356;28;20120;-74
2023/01/20 06:29:46;;;;;;;48.67;20.40;;;0.20;99.90;;;;;;5021860;28;20131;-73
2023/01/20 06:32:12;;;;;;;47.60;19.13;;;-0.10;99.90;;;;;;5015464;28;20053;-73
2023/01/20 06:34:37;;;;;;;44.85;18.38;;;-0.10;99.90;;;;;;5038378;28;20505;-72
2023/01/20 06:37:03;;;;;;;48.97;20.52;;;-0.10;99.90;;;;;;5039222;28;20055;-73
2023/01/20 06:39:29;;;;;;;51.25;19.65;;;-0.10;99.90;;;;;;5024954;28;20120;-73
2023/01/20 06:41:59;;;;;;;44.80;20.60;;;0.40;99.90;;;;;;5059984;28;20052;-72
2023/01/20 06:44:26;;;;;;;49.78;20.95;;;0.20;99.90;;;;;;5018955;28;20059;-74
2023/01/20 06:46:52;;;;;;;45.60;20.17;;;0.00;99.90;;;;;;5018841;28;20135;-72
2023/01/20 06:49:17;;;;;;;46.40;20.75;;;0.80;99.90;;;;;;5039521;28;20156;-72
2023/01/20 06:51:43;;;;;;;42.80;19.15;;;-0.10;99.90;;;;;;5037142;28;20131;-72
2023/01/20 06:54:09;;;;;;;43.28;19.52;;;-0.10;99.90;;;;;;5021532;28;20640;-72
2023/01/20 06:56:35;;;;;;;42.33;20.48;;;-0.10;99.90;;;;;;5022033;28;20040;-73
2023/01/20 06:59:00;;;;;;;41.35;19.88;;;-0.10;99.90;;;;;;5040124;28;20079;-73
2023/01/20 07:01:30;;;;;;;46.38;20.05;;;0.80;99.90;;;;;;5019683;28;20040;-73
2023/01/20 07:03:59;;;;;;;41.33;19.98;;;-0.10;99.90;;;;;;5035150;28;20534;-74
2023/01/20 07:06:37;;;;;;;46.08;19.80;;;-0.10;99.90;;;;;;5031134;28;20047;-72
2023/01/20 07:09:05;;;;;;;42.05;19.23;;;0.30;99.90;;;;;;5034002;28;20151;-72
2023/01/20 07:11:31;;;;;;;52.10;22.25;;;-0.10;99.90;;;;;;5038705;28;20543;-72
2023/01/20 07:13:57;;;;;;;46.58;20.63;;;-0.10;99.90;;;;;;5056607;28;20052;-72
2023/01/20 07:16:23;;;;;;;51.60;21.27;;;-0.20;99.90;;;;;;5036561;28;20036;-72
2023/01/20 07:18:50;;;;;;;47.30;21.52;;;-0.10;99.90;;;;;;5037355;28;20751;-73
2023/01/20 07:21:16;;;;;;;50.78;21.52;;;-0.10;99.90;;;;;;5056011;28;20506;-72
2023/01/20 07:23:42;;;;;;;45.42;20.38;;;-0.10;99.90;;;;;;5056538;28;20111;-72
2023/01/20 07:26:17;;;;;;;47.95;20.45;;;0.40;99.90;;;;;;5039117;28;20194;-72
2023/01/20 07:28:43;;;;;;;48.42;19.88;;;-0.10;99.90;;;;;;5024195;28;20056;-72
2023/01/20 07:31:11;;;;;;;49.40;21.30;;;-0.10;99.90;;;;;;5036191;28;20562;-72
2023/01/20 07:33:37;;;;;;;53.88;21.95;;;-0.10;99.90;;;;;;5041440;28;20108;-73
2023/01/20 07:36:05;;;;;;;50.65;22.05;;;-0.10;99.90;;;;;;5023217;28;20619;-73
2023/01/20 07:38:31;;;;;;;50.97;21.95;;;-0.10;99.90;;;;;;5035657;28;20053;-71
2023/01/20 07:40:58;;;;;;;48.45;21.42;;;-0.10;99.90;;;;;;5040612;28;20646;-73
2023/01/20 07:43:24;;;;;;;57.17;23.23;;;-0.10;99.90;;;;;;5041112;28;20036;-72
2023/01/20 07:45:53;;;;;;;51.42;22.50;;;-0.10;99.90;;;;;;5057051;28;20098;-73
2023/01/20 07:48:18;;;;;;;48.90;21.77;;;-0.10;99.90;;;;;;5058823;28;20532;-72
2023/01/20 07:50:44;;;;;;;54.60;23.10;;;0.00;99.90;;;;;;5039845;28;20056;-72
2023/01/20 07:53:10;;;;;;;50.78;21.95;;;0.20;99.90;;;;;;5040076;28;20064;-72
2023/01/20 07:55:36;;;;;;;51.30;23.10;;;0.00;99.90;;;;;;5040865;28;20138;-72
2023/01/20 07:58:01;;;;;;;55.67;22.90;;;-0.10;99.90;;;;;;5038106;28;20068;-72
2023/01/20 08:00:27;;;;;;;52.97;22.27;;;0.00;99.90;;;;;;5040858;28;20041;-72
2023/01/20 08:02:53;;;;;;;56.22;22.70;;;0.00;99.90;;;;;;5054323;28;20053;-73
2023/01/20 08:05:19;;;;;;;55.83;22.95;;;0.00;99.90;;;;;;5054498;28;20052;-72
2023/01/20 08:07:49;;;;;;;56.45;24.58;;;1.00;99.90;;;;;;5036376;28;20498;-72
2023/01/20 08:10:15;;;;;;;56.72;23.50;;;0.00;99.90;;;;;;5039405;28;20049;-72
2023/01/20 08:12:41;;;;;;;64.30;25.75;;;0.00;99.90;;;;;;5037333;28;20572;-73
2023/01/20 08:15:07;;;;;;;55.75;24.67;;;0.40;99.90;;;;;;5038533;28;20052;-72
2023/01/20 08:17:33;;;;;;;55.00;23.63;;;0.00;99.90;;;;;;5020843;28;20405;-72
2023/01/20 08:19:59;;;;;;;51.10;22.67;;;0.00;99.90;;;;;;5036656;28;20048;-73
2023/01/20 08:22:24;;;;;;;58.30;25.67;;;0.10;99.90;;;;;;5058343;28;20040;-73
2023/01/20 08:24:50;;;;;;;56.83;24.25;;;0.00;99.90;;;;;;5055027;28;20040;-73
2023/01/20 08:27:16;;;;;;;59.63;25.85;;;0.30;99.90;;;;;;5036618;28;20772;-73
2023/01/20 08:29:41;;;;;;;57.60;24.50;;;0.10;99.90;;;;;;5035817;28;20109;-73
2023/01/20 08:32:07;;;;;;;57.50;24.88;;;0.10;99.90;;;;;;5021281;28;20045;-73
2023/01/20 08:34:33;;;;;;;61.97;25.90;;;0.10;99.90;;;;;;5054869;28;20092;-73
2023/01/20 08:36:58;;;;;;;59.42;25.88;;;0.10;99.90;;;;;;5058955;28;20047;-73
2023/01/20 08:39:24;;;;;;;62.00;26.00;;;0.10;99.90;;;;;;5038652;28;20039;-73
2023/01/20 08:41:50;;;;;;;60.20;25.48;;;0.10;99.90;;;;;;5021874;28;20135;-73
2023/01/20 08:44:17;;;;;;;66.20;27.85;;;0.20;99.90;;;;;;5036930;28;20913;-73
2023/01/20 08:46:43;;;;;;;59.47;26.60;;;0.10;99.90;;;;;;5020412;28;20084;-73
2023/01/20 08:49:12;;;;;;;55.45;24.77;;;0.20;99.90;;;;;;5018761;28;20461;-73
2023/01/20 08:51:38;;;;;;;64.50;26.70;;;0.20;99.90;;;;;;5056378;28;20462;-73
2023/01/20 08:54:04;;;;;;;65.35;26.50;;;0.60;99.90;;;;;;5036198;28;20071;-73
2023/01/20 08:56:30;;;;;;;60.42;26.00;;;0.20;99.90;;;;;;5057056;28;20651;-73
2023/01/20 08:58:57;;;;;;;61.97;25.50;;;0.50;99.90;;;;;;5021236;28;20557;-73
2023/01/20 09:01:25;;;;;;;61.28;26.10;;;1.20;99.90;;;;;;5050444;28;20047;-73
2023/01/20 09:03:54;;;;;;;60.92;25.70;;;0.20;99.90;;;;;;5040248;28;20044;-73
2023/01/20 09:06:21;;;;;;;60.63;26.42;;;0.40;99.90;;;;;;5032739;28;20049;-73
2023/01/20 09:08:50;;;;;;;64.70;26.13;;;0.30;99.90;;;;;;5034656;28;20116;-73
2023/01/20 09:11:20;;;;;;;61.38;26.63;;;0.80;99.90;;;;;;5060594;28;20434;-73
2023/01/20 09:13:46;;;;;;;58.63;24.52;;;0.30;99.90;;;;;;5041338;28;20106;-73
2023/01/20 09:16:14;;;;;;;64.50;26.00;;;0.20;99.90;;;;;;5055842;28;20049;-73
2023/01/20 09:18:40;;;;;;;64.97;26.02;;;0.30;99.90;;;;;;5050671;28;20045;-73
2023/01/20 09:21:06;;;;;;;57.05;26.27;;;0.30;99.90;;;;;;5060518;28;20756;-73
2023/01/20 09:23:33;;;;;;;64.47;27.27;;;0.80;99.90;;;;;;5037972;28;20044;-73
2023/01/20 09:26:00;;;;;;;56.70;24.55;;;0.30;99.90;;;;;;5024932;28;20106;-73
2023/01/20 09:28:27;;;;;;;58.90;24.67;;;0.30;99.90;;;;;;5036353;28;20045;-73
2023/01/20 09:30:58;;;;;;;58.95;26.27;;;0.70;99.90;;;;;;5057381;28;20040;-73
2023/01/20 09:33:24;;;;;;;61.10;25.58;;;0.30;99.90;;;;;;5038577;28;20045;-73
2023/01/20 09:35:58;;;;;;;64.90;25.23;;;0.30;99.90;;;;;;5025682;28;20822;-73
2023/01/20 09:44:29;;;;;;;66.70;25.52;;;0.40;99.90;;;;;;4993259;28;20056;-73
2023/01/20 09:47:30;;;;;;;59.42;24.70;;;0.40;99.90;;;;;;5059695;28;20044;-73
2023/01/20 09:53:15;;;;;;;58.97;23.98;;;0.40;99.90;;;;;;5036681;28;20086;-73
2023/01/20 09:55:49;;;;;;;;;;;0.50;99.90;;;;;;5020752;28;20426;-73
2023/01/20 09:58:26;;;;;;;57.10;25.00;;;0.40;99.90;;;;;;5040154;28;19971;-73
2023/01/20 10:00:59;;;;;;;63.22;25.77;;;0.40;99.90;;;;;;5019310;28;20374;-73
2023/01/20 10:03:59;;;;;;;59.80;23.13;;;0.40;99.90;;;;;;5036188;28;20048;-73
2023/01/20 10:06:33;;;;;;;62.72;24.02;;;0.40;99.90;;;;;;5057576;28;20044;-73
2023/01/20 10:09:08;;;;;;;61.13;24.80;;;0.40;99.90;;;;;;5043400;28;20052;-73
2023/01/20 10:11:41;;;;;;;59.53;24.88;;;0.50;99.90;;;;;;5058709;28;20059;-73
2023/01/20 10:14:27;;;;;;;64.18;25.75;;;0.50;99.90;;;;;;5042862;28;20081;-72
2023/01/20 10:17:01;;;;;;;58.42;24.00;;;0.50;99.90;;;;;;5060472;28;20539;-73
2023/01/20 10:19:41;;;;;;;59.75;23.98;;;0.50;99.90;;;;;;5039709;28;20110;-74
2023/01/20 10:22:19;;;;;;;61.20;24.13;;;0.50;99.90;;;;;;5059806;28;20044;-74
2023/01/20 10:24:54;;;;;;;62.85;25.73;;;0.50;99.90;;;;;;5059264;28;20036;-73
2023/01/20 10:27:24;;;;;;;59.00;24.23;;;0.60;99.90;;;;;;5027335;28;20233;-73
2023/01/20 10:29:57;;;;;;;60.25;25.25;;;0.60;99.90;;;;;;5041491;28;20056;-73
2023/01/20 10:32:36;;;;;;;60.33;25.20;;;0.60;99.90;;;;;;5059240;28;21210;-73
2023/01/20 10:35:21;;;;;;;65.80;25.95;;;0.60;99.90;;;;;;5044083;28;20059;-73
2023/01/20 10:37:47;;;;;;;63.10;23.98;;;0.60;99.90;;;;;;5039563;28;20040;-72
2023/01/20 10:40:24;;;;;;;62.88;26.33;;;0.70;99.90;;;;;;5038806;28;20106;-73
2023/01/20 10:43:01;;;;;;;59.95;24.30;;;0.70;99.90;;;;;;5038372;28;20460;-73
2023/01/20 10:45:45;;;;;;;64.10;24.58;;;0.70;99.90;;;;;;5024510;28;20224;-73
2023/01/20 10:48:35;;;;;;;62.22;25.77;;;0.70;99.90;;;;;;5022437;28;20569;-73
2023/01/20 10:51:26;;;;;;;60.38;25.27;;;0.70;99.90;;;;;;5040674;28;20421;-73
2023/01/20 10:54:13;;;;;;;63.57;25.17;;;0.80;99.90;;;;;;5038357;28;21357;-73
2023/01/20 10:56:52;;;;;;;63.55;24.17;;;0.70;99.90;;;;;;5058825;28;20041;-72
2023/01/20 10:59:41;;;;;;;53.88;22.88;;;0.80;99.90;;;;;;5038619;28;20067;-73
2023/01/20 11:02:19;;;;;;;55.88;23.13;;;0.80;99.90;;;;;;5030024;28;20048;-73
2023/01/20 11:04:51;;;;;;;61.47;23.55;;;0.80;99.90;;;;;;5020908;28;20811;-72
2023/01/20 11:07:18;;;;;;;62.65;25.70;;;0.80;99.90;;;;;;5056158;28;20062;-73
2023/01/20 11:09:46;;;;;;;64.25;25.33;;;0.80;99.90;;;;;;5038425;28;20052;-73
2023/01/20 11:12:19;;;;;;;59.83;24.38;;;0.80;99.90;;;;;;5057964;28;20114;-73
2023/01/20 11:14:46;;;;;;;60.75;23.33;;;0.80;99.90;;;;;;5056913;28;20036;-73
2023/01/20 11:17:17;;;;;;;66.15;25.77;;;0.90;99.90;;;;;;5052935;28;20048;-73
2023/01/20 11:20:05;;;;;;;57.25;24.45;;;0.90;99.90;;;;;;5037618;28;20061;-73
2023/01/20 11:22:34;;;;;;;54.45;21.52;;;0.90;99.90;;;;;;5038236;28;20600;-73
2023/01/20 11:25:02;;;;;;;56.00;23.20;;;0.80;99.90;;;;;;5040373;28;20045;-73
2023/01/20 11:27:41;;;;;;;54.05;23.08;;;0.90;99.90;;;;;;5057558;28;20731;-73
2023/01/20 11:30:21;;;;;;;55.17;22.67;;;0.80;99.90;;;;;;5021660;28;20071;-73
2023/01/20 11:33:16;;;;;;;54.33;22.27;;;0.90;99.90;;;;;;5022341;28;20051;-74
2023/01/20 11:36:00;;;;;;;54.17;21.10;;;0.90;99.90;;;;;;5036413;28;20127;-73
2023/01/20 11:38:41;;;;;;;54.58;20.50;;;0.90;99.90;;;;;;5021319;28;20058;-73
2023/01/20 11:41:27;;;;;;;48.28;21.15;;;0.90;99.90;;;;;;5056008;28;20049;-73
2023/01/20 11:43:56;;;;;;;55.90;20.83;;;0.90;99.90;;;;;;5053985;28;20191;-73
2023/01/20 11:46:31;;;;;;;51.22;21.05;;;0.90;99.90;;;;;;5040117;28;20045;-73
2023/01/20 11:49:15;;;;;;;49.47;21.60;;;0.90;99.90;;;;;;5052522;28;20089;-73
2023/01/20 11:51:55;;;;;;;51.03;22.58;;;1.70;99.90;;;;;;5036078;28;20051;-73
2023/01/20 11:54:25;;;;;;;51.05;20.33;;;0.90;99.90;;;;;;5053622;28;20041;-73
2023/01/20 11:56:54;;;;;;;44.00;20.40;;;1.00;99.90;;;;;;5056386;28;20048;-73
2023/01/20 11:59:26;;;;;;;52.58;22.60;;;0.90;99.90;;;;;;5022802;28;20131;-73
2023/01/20 12:02:19;;;;;;;50.10;22.05;;;0.90;99.90;;;;;;5039632;28;20048;-73
2023/01/20 12:04:55;;;;;;;47.75;22.45;;;0.90;99.90;;;;;;5029006;28;20152;-72
2023/01/20 12:07:27;;;;;;;51.38;23.08;;;1.20;99.90;;;;;;5036451;28;20052;-71
2023/01/20 12:10:03;;;;;;;51.95;22.27;;;1.00;99.90;;;;;;5036638;28;20813;-72
2023/01/20 12:12:39;;;;;;;50.75;20.60;;;1.60;99.90;;;;;;5055503;28;20055;-72
2023/01/20 12:15:25;;;;;;;45.83;20.35;;;1.00;99.90;;;;;;5056440;28;20064;-73
2023/01/20 12:18:10;;;;;;;48.58;21.60;;;1.00;99.90;;;;;;5038584;28;20072;-72
2023/01/20 12:20:52;;;;;;;47.08;21.27;;;0.90;99.90;;;;;;5055781;28;20096;-72
2023/01/20 12:23:38;;;;;;;55.13;21.02;;;0.90;99.90;;;;;;5038934;28;20453;-72
2023/01/20 12:26:05;;;;;;;47.80;20.90;;;0.90;99.90;;;;;;5055840;28;20697;-71
2023/01/20 12:28:39;;;;;;;51.65;21.45;;;0.90;99.90;;;;;;5057979;28;20072;-72
2023/01/20 12:31:09;;;;;;;48.67;22.38;;;0.90;99.90;;;;;;5017780;28;20171;-73
2023/01/20 12:33:39;;;;;;;50.75;20.88;;;0.90;99.90;;;;;;5036532;28;20464;-73
2023/01/20 12:36:27;;;;;;;48.00;21.33;;;0.90;99.90;;;;;;5039889;28;20802;-72
2023/01/20 12:39:17;;;;;;;50.00;22.35;;;0.90;99.90;;;;;;5054412;28;20059;-72
2023/01/20 12:42:11;;;;;;;48.80;21.02;;;0.80;99.90;;;;;;5035209;28;20716;-74
2023/01/20 12:44:44;;;;;;;47.05;20.60;;;0.80;99.90;;;;;;5052096;28;20052;-73
2023/01/20 12:47:29;;;;;;;49.42;20.33;;;0.80;99.90;;;;;;5025181;28;20040;-73
2023/01/20 12:50:19;;;;;;;48.80;19.67;;;0.80;99.90;;;;;;5058314;28;20493;-73
2023/01/20 12:52:57;;;;;;;46.60;19.30;;;0.80;99.90;;;;;;5040481;28;20040;-73
2023/01/20 12:55:23;;;;;;;54.40;20.83;;;0.90;99.90;;;;;;5058930;28;20052;-73
2023/01/20 12:58:02;;;;;;;47.67;20.65;;;0.80;99.90;;;;;;5022386;28;20106;-73
2023/01/20 13:00:46;;;;;;;48.78;20.65;;;1.30;99.90;;;;;;5040527;28;20584;-74
2023/01/20 13:03:31;;;;;;;48.60;21.67;;;0.80;99.90;;;;;;5041560;28;20119;-74
2023/01/20 13:05:57;;;;;;;49.17;20.85;;;1.00;99.90;;;;;;5043593;28;20044;-74